createdAt,value
2023-03-26T00:00:06.083Z,96501.25
2023-03-26T00:03:01.750Z,96508.71
2023-03-26T00:05:32.460Z,96507.28
2023-03-26T00:08:01.850Z,96503.83
2023-03-26T00:10:31.235Z,96503.46
2023-03-26T00:13:00.221Z,96504.48
2023-03-26T00:15:29.990Z,96509.33
2023-03-26T00:18:01.232Z,96508.46
2023-03-26T00:20:34.935Z,96510.30
2023-03-26T00:23:04.279Z,96512.06
2023-03-26T00:25:35.262Z,96513.32
2023-03-26T00:28:04.644Z,96518.08
2023-03-26T00:30:42.086Z,96519.78
2023-03-26T00:33:12.668Z,96521.77
2023-03-26T00:35:43.713Z,96524.84
2023-03-26T00:38:17.292Z,96526.38
2023-03-26T00:40:48.518Z,96522.94
2023-03-26T00:43:20.119Z,96524.29
2023-03-26T00:45:54.785Z,96521.55
2023-03-26T00:48:34.329Z,96523.09
2023-03-26T00:51:12.911Z,96522.41
2023-03-26T00:53:43.150Z,96515.67
2023-03-26T00:56:13.797Z,96511.61
2023-03-26T00:58:46.500Z,96509.48
2023-03-26T01:01:21.489Z,96506.13
2023-03-26T01:04:08.909Z,96510.02
2023-03-26T01:06:42.548Z,96519.78
2023-03-26T01:09:19.261Z,96524.04
2023-03-26T01:11:51.867Z,96522.30
2023-03-26T01:14:27.559Z,96525.73
2023-03-26T01:17:03.826Z,96521.65
2023-03-26T01:20:09.073Z,96528.89
2023-03-26T01:22:42.110Z,96527.48
2023-03-26T01:25:12.951Z,96526.88
2023-03-26T01:27:51.746Z,96529.48
2023-03-26T01:30:42.482Z,96532.55
2023-03-26T01:33:35.205Z,96534.13
2023-03-26T01:36:18.256Z,96537.29
2023-03-26T01:39:02.129Z,96540.64
2023-03-26T01:41:48.416Z,96544.61
2023-03-26T01:44:43.846Z,96546.64
2023-03-26T01:47:14.618Z,96545.05
2023-03-26T01:49:45.689Z,96547.36
2023-03-26T01:52:22.835Z,96547.61
2023-03-26T01:54:55.092Z,96548.42
2023-03-26T01:57:43.125Z,96546.44
2023-03-26T02:00:46.425Z,96548.38
2023-03-26T02:03:28.899Z,96550.97
2023-03-26T02:06:06.573Z,96555.63
2023-03-26T02:09:04.757Z,96561.30
2023-03-26T02:11:37.617Z,96559.05
2023-03-26T02:14:09.055Z,96567.23
2023-03-26T02:16:38.123Z,96567.41
2023-03-26T02:19:16.427Z,96573.31
2023-03-26T02:21:47.363Z,96575.66
2023-03-26T02:24:19.915Z,96578.05
2023-03-26T02:26:50.694Z,96574.92
2023-03-26T02:29:21.630Z,96578.45
2023-03-26T02:31:54.807Z,96582.98
2023-03-26T02:34:27.355Z,96586.78
2023-03-26T02:36:59.293Z,96589.55
2023-03-26T02:39:29.625Z,96592.90
2023-03-26T02:42:03.755Z,96592.55
2023-03-26T02:44:40.184Z,96589.48
2023-03-26T02:47:16.111Z,96590.12
2023-03-26T02:49:48.767Z,96595.27
2023-03-26T02:52:38.941Z,96596.05
2023-03-26T02:55:10.218Z,96598.23
2023-03-26T02:57:43.498Z,96594.69
2023-03-26T03:00:26.490Z,96601.58
2023-03-26T03:03:27.980Z,96606.30
2023-03-26T03:06:27.114Z,96607.60
2023-03-26T03:09:03.499Z,96609.68
2023-03-26T03:11:41.238Z,96608.54
2023-03-26T03:14:10.940Z,96607.72
2023-03-26T03:16:42.738Z,96605.15
2023-03-26T03:19:14.663Z,96602.84
2023-03-26T03:21:45.099Z,96604.13
2023-03-26T03:24:18.886Z,96607.42
2023-03-26T03:26:50.892Z,96603.09
2023-03-26T03:29:39.794Z,96608.01
2023-03-26T03:32:46.825Z,96607.31
2023-03-26T03:35:23.382Z,96606.34
2023-03-26T03:38:02.361Z,96603.97
2023-03-26T03:40:38.038Z,96606.23
2023-03-26T03:43:09.055Z,96602.85
2023-03-26T03:45:46.042Z,96607.23
2023-03-26T03:48:39.396Z,96607.14
2023-03-26T03:51:11.071Z,96611.89
2023-03-26T03:54:10.802Z,96613.78
2023-03-26T03:56:50.820Z,96619.68
2023-03-26T03:59:34.618Z,96619.62
2023-03-26T04:02:06.199Z,96618.52
2023-03-26T04:04:42.545Z,96617.89
2023-03-26T04:07:14.318Z,96613.41
2023-03-26T04:10:09.656Z,96613.60
2023-03-26T04:13:08.181Z,96614.37
2023-03-26T04:15:57.585Z,96611.74
2023-03-26T04:18:28.048Z,96611.45
2023-03-26T04:21:03.112Z,96608.35
2023-03-26T04:23:32.753Z,96609.56
2023-03-26T04:26:13.822Z,96611.48
2023-03-26T04:29:07.085Z,96614.95
2023-03-26T04:31:38.831Z,96616.15
2023-03-26T04:34:14.050Z,96623.60
2023-03-26T04:36:55.000Z,96626.91
2023-03-26T04:39:30.912Z,96629.12
2023-03-26T04:42:23.005Z,96634.83
2023-03-26T04:45:23.013Z,96630.09
2023-03-26T04:47:58.991Z,96631.88
2023-03-26T04:50:28.130Z,96637.21
2023-03-26T04:52:58.568Z,96641.92
2023-03-26T04:56:37.607Z,96640.91
2023-03-26T04:59:35.982Z,96648.80
2023-03-26T05:02:13.508Z,96649.38
2023-03-26T05:04:52.664Z,96654.20
2023-03-26T05:07:24.250Z,96655.95
2023-03-26T05:09:58.016Z,96654.98
2023-03-26T05:12:36.928Z,96657.21
2023-03-26T05:15:12.583Z,96652.02
2023-03-26T05:17:57.908Z,96648.38
2023-03-26T05:20:47.433Z,96650.02
2023-03-26T05:23:17.353Z,96651.42
2023-03-26T05:25:52.521Z,96654.60
2023-03-26T05:28:24.997Z,96649.59
2023-03-26T05:31:01.334Z,96646.17
2023-03-26T05:33:33.038Z,96646.41
2023-03-26T05:36:13.938Z,96648.05
2023-03-26T05:38:49.895Z,96654.27
2023-03-26T05:41:53.837Z,96656.46
2023-03-26T05:44:26.079Z,96656.96
2023-03-26T05:46:54.971Z,96658.27
2023-03-26T05:49:26.123Z,96656.61
2023-03-26T05:51:56.068Z,96653.98
2023-03-26T05:54:47.973Z,96653.63
2023-03-26T05:57:48.700Z,96660.18
2023-03-26T06:00:39.107Z,96668.23
2023-03-26T06:03:13.182Z,96671.23
2023-03-26T06:06:17.140Z,96669.91
2023-03-26T06:09:02.087Z,96663.89
2023-03-26T06:11:33.089Z,96665.80
2023-03-26T06:14:03.443Z,96669.23
2023-03-26T06:16:34.003Z,96665.63
2023-03-26T06:19:18.676Z,96665.74
2023-03-26T06:21:53.720Z,96664.50
2023-03-26T06:24:26.462Z,96668.61
2023-03-26T06:27:27.698Z,96673.78
2023-03-26T06:30:16.777Z,96671.45
2023-03-26T06:33:08.545Z,96670.64
2023-03-26T06:35:45.826Z,96675.51
2023-03-26T06:38:15.501Z,96680.53
2023-03-26T06:40:44.363Z,96683.48
2023-03-26T06:43:42.343Z,96686.48
2023-03-26T06:46:36.750Z,96693.63
2023-03-26T06:49:18.097Z,96697.15
2023-03-26T06:52:05.722Z,96695.63
2023-03-26T06:55:06.134Z,96698.70
2023-03-26T06:58:00.632Z,96693.73
2023-03-26T07:00:47.198Z,96691.38
2023-03-26T07:03:39.060Z,96688.26
2023-03-26T07:06:26.212Z,96687.81
2023-03-26T07:09:13.402Z,96687.09
2023-03-26T07:12:00.681Z,96689.41
2023-03-26T07:14:49.486Z,96687.04
2023-03-26T07:17:41.570Z,96684.36
2023-03-26T07:20:17.690Z,96683.69
2023-03-26T07:22:46.977Z,96680.46
2023-03-26T07:25:19.886Z,96680.29
2023-03-26T07:28:28.579Z,96681.94
2023-03-26T07:31:39.019Z,96682.91
2023-03-26T07:34:38.328Z,96683.17
2023-03-26T07:37:46.397Z,96679.52
2023-03-26T07:40:29.210Z,96678.18
2023-03-26T07:43:31.284Z,96675.83
2023-03-26T07:46:26.286Z,96669.95
2023-03-26T07:49:14.868Z,96660.27
2023-03-26T07:52:19.578Z,96659.48
2023-03-26T07:55:06.073Z,96662.05
2023-03-26T07:57:59.637Z,96667.21
2023-03-26T08:00:52.679Z,96665.26
2023-03-26T08:03:47.068Z,96660.06
2023-03-26T08:07:00.076Z,96661.75
2023-03-26T08:10:19.274Z,96663.89
2023-03-26T08:13:23.240Z,96659.15
2023-03-26T08:16:10.576Z,96659.48
2023-03-26T08:19:01.928Z,96659.48
2023-03-26T08:21:43.385Z,96659.33
2023-03-26T08:24:27.633Z,96660.73
2023-03-26T08:27:21.849Z,96667.70
2023-03-26T08:30:13.981Z,96669.95
2023-03-26T08:32:49.549Z,96668.29
2023-03-26T08:35:18.360Z,96661.63
2023-03-26T08:37:47.732Z,96658.59
2023-03-26T08:40:32.172Z,96662.89
2023-03-26T08:43:30.515Z,96657.87
2023-03-26T08:46:27.970Z,96661.28
2023-03-26T08:49:18.454Z,96665.24
2023-03-26T08:51:56.101Z,96670.46
2023-03-26T08:54:47.539Z,96669.16
2023-03-26T08:58:02.893Z,96669.55
2023-03-26T09:00:37.527Z,96671.07
2023-03-26T09:03:31.245Z,96672.08
2023-03-26T09:06:15.054Z,96670.70
2023-03-26T09:08:53.751Z,96670.43
2023-03-26T09:11:23.366Z,96671.27
2023-03-26T09:14:01.586Z,96672.86
2023-03-26T09:16:56.374Z,96676.15
2023-03-26T09:19:43.496Z,96673.27
2023-03-26T09:22:24.264Z,96670.36
2023-03-26T09:25:18.000Z,96672.40
2023-03-26T09:28:14.579Z,96666.66
2023-03-26T09:30:58.723Z,96663.61
2023-03-26T09:33:32.429Z,96669.80
2023-03-26T09:36:22.202Z,96666.36
2023-03-26T09:39:16.790Z,96669.39
2023-03-26T09:42:24.814Z,96663.67
2023-03-26T09:44:59.639Z,96662.27
2023-03-26T09:47:28.246Z,96662.62
2023-03-26T09:50:14.985Z,96660.96
2023-03-26T09:52:50.656Z,96664.27
2023-03-26T09:55:50.188Z,96665.38
2023-03-26T09:58:33.835Z,96663.52
2023-03-26T10:01:21.653Z,96669.49
2023-03-26T10:04:06.840Z,96661.02
2023-03-26T10:07:04.428Z,96662.55
2023-03-26T10:10:09.347Z,96660.41
2023-03-26T10:12:43.785Z,96657.34
2023-03-26T10:15:32.213Z,96660.00
2023-03-26T10:18:27.341Z,96655.65
2023-03-26T10:21:04.008Z,96652.64
2023-03-26T10:24:14.781Z,96647.73
2023-03-26T10:27:08.689Z,96648.55
2023-03-26T10:30:04.667Z,96643.33
2023-03-26T10:33:13.169Z,96638.97
2023-03-26T10:35:47.937Z,96637.00
2023-03-26T10:38:46.505Z,96633.70
2023-03-26T10:41:24.584Z,96637.13
2023-03-26T10:44:37.190Z,96641.63
2023-03-26T10:47:16.331Z,96634.09
2023-03-26T10:50:05.120Z,96632.67
2023-03-26T10:52:43.397Z,96628.27
2023-03-26T10:55:24.299Z,96628.81
2023-03-26T10:57:59.407Z,96628.77
2023-03-26T11:00:30.220Z,96626.40
2023-03-26T11:03:26.289Z,96623.40
2023-03-26T11:06:17.353Z,96627.08
2023-03-26T11:09:18.839Z,96617.55
2023-03-26T11:12:25.423Z,96631.52
2023-03-26T11:15:21.457Z,96625.23
2023-03-26T11:17:53.033Z,96624.30
2023-03-26T11:20:43.595Z,96622.44
2023-03-26T11:23:27.165Z,96616.80
2023-03-26T11:26:07.158Z,96610.13
2023-03-26T11:29:03.639Z,96607.38
2023-03-26T11:31:35.600Z,96610.13
2023-03-26T11:34:11.541Z,96600.70
2023-03-26T11:36:45.628Z,96608.47
2023-03-26T11:39:26.111Z,96604.90
2023-03-26T11:42:07.588Z,96601.86
2023-03-26T11:44:56.773Z,96602.02
2023-03-26T11:47:36.500Z,96598.86
2023-03-26T11:50:08.504Z,96596.24
2023-03-26T11:52:37.766Z,96598.88
2023-03-26T11:55:06.964Z,96602.17
2023-03-26T11:57:38.540Z,96598.25
2023-03-26T12:00:27.796Z,96593.44
2023-03-26T12:02:59.062Z,96586.69
2023-03-26T12:05:36.922Z,96580.85
2023-03-26T12:08:21.904Z,96573.70
2023-03-26T12:11:01.760Z,96577.64
2023-03-26T12:13:43.543Z,96573.29
2023-03-26T12:16:18.176Z,96569.16
2023-03-26T12:19:01.280Z,96570.46
2023-03-26T12:21:46.570Z,96573.02
2023-03-26T12:24:33.466Z,96569.90
2023-03-26T12:27:21.458Z,96559.31
2023-03-26T12:30:00.324Z,96556.31
2023-03-26T12:32:45.269Z,96559.70
2023-03-26T12:35:27.967Z,96556.03
2023-03-26T12:38:24.686Z,96551.30
2023-03-26T12:42:36.682Z,96552.07
2023-03-26T12:44:45.937Z,96550.09
2023-03-26T12:48:01.798Z,96546.30
2023-03-26T12:50:17.170Z,96551.46
2023-03-26T12:53:08.272Z,96546.77
2023-03-26T12:55:44.731Z,96545.42
2023-03-26T12:58:55.520Z,96549.27
2023-03-26T13:01:33.741Z,96546.02
2023-03-26T13:04:40.090Z,96535.95
2023-03-26T13:07:27.507Z,96531.00
2023-03-26T13:10:17.205Z,96532.51
2023-03-26T13:13:11.681Z,96529.41
2023-03-26T13:15:52.857Z,96525.71
2023-03-26T13:18:43.963Z,96523.95
2023-03-26T13:21:29.663Z,96521.09
2023-03-26T13:24:18.204Z,96511.74
2023-03-26T13:27:27.337Z,96498.34
2023-03-26T13:30:50.535Z,96494.73
2023-03-26T13:33:27.379Z,96492.32
2023-03-26T13:36:22.485Z,96480.81
2023-03-26T13:38:58.940Z,96478.08
2023-03-26T13:41:32.256Z,96469.95
2023-03-26T13:44:31.965Z,96477.92
2023-03-26T13:47:10.888Z,96484.06
2023-03-26T13:49:48.787Z,96483.05
2023-03-26T13:52:26.606Z,96479.99
2023-03-26T13:55:02.753Z,96478.32
2023-03-26T13:57:37.681Z,96472.64
2023-03-26T14:00:16.692Z,96466.86
2023-03-26T14:02:57.109Z,96464.63
2023-03-26T14:05:39.891Z,96464.91
2023-03-26T14:08:23.020Z,96468.80
2023-03-26T14:10:59.792Z,96469.30
2023-03-26T14:13:57.770Z,96470.41
2023-03-26T14:16:35.843Z,96468.22
2023-03-26T14:19:41.452Z,96464.55
2023-03-26T14:22:18.600Z,96459.69
2023-03-26T14:24:52.922Z,96455.40
2023-03-26T14:27:38.497Z,96451.94
2023-03-26T14:30:16.401Z,96454.49
2023-03-26T14:33:11.013Z,96445.98
2023-03-26T14:36:04.554Z,96441.50
2023-03-26T14:39:08.287Z,96444.77
2023-03-26T14:41:56.524Z,96441.86
2023-03-26T14:44:47.632Z,96435.98
2023-03-26T14:47:22.249Z,96439.20
2023-03-26T14:50:20.596Z,96438.01
2023-03-26T14:52:51.856Z,96432.98
2023-03-26T14:55:48.931Z,96434.16
2023-03-26T14:58:17.514Z,96425.03
2023-03-26T15:01:23.186Z,96422.94
2023-03-26T15:04:13.349Z,96418.78
2023-03-26T15:07:01.186Z,96419.38
2023-03-26T15:10:07.505Z,96415.41
2023-03-26T15:13:10.665Z,96412.16
2023-03-26T15:16:07.109Z,96415.62
2023-03-26T15:18:50.618Z,96411.58
2023-03-26T15:21:56.060Z,96418.02
2023-03-26T15:24:27.818Z,96423.52
2023-03-26T15:27:15.543Z,96429.55
2023-03-26T15:30:02.156Z,96430.84
2023-03-26T15:33:01.387Z,96426.04
2023-03-26T15:35:42.722Z,96422.32
2023-03-26T15:38:35.793Z,96420.61
2023-03-26T15:41:19.849Z,96424.27
2023-03-26T15:44:24.506Z,96424.02
2023-03-26T15:47:16.908Z,96421.33
2023-03-26T15:50:27.378Z,96417.52
2023-03-26T15:52:56.366Z,96422.06
2023-03-26T15:55:53.112Z,96426.96
2023-03-26T15:58:29.072Z,96429.73
2023-03-26T16:01:08.718Z,96431.16
2023-03-26T16:03:50.306Z,96426.54
2023-03-26T16:06:28.422Z,96425.35
2023-03-26T16:09:15.427Z,96425.93
2023-03-26T16:12:11.959Z,96429.34
2023-03-26T16:14:44.868Z,96430.40
2023-03-26T16:17:20.844Z,96424.48
2023-03-26T16:19:59.669Z,96421.39
2023-03-26T16:23:00.057Z,96418.06
2023-03-26T16:25:34.403Z,96419.77
2023-03-26T16:28:26.809Z,96415.52
2023-03-26T16:31:37.245Z,96416.71
2023-03-26T16:34:06.064Z,96414.67
2023-03-26T16:36:39.187Z,96416.95
2023-03-26T16:39:10.741Z,96414.87
2023-03-26T16:41:39.288Z,96411.23
2023-03-26T16:44:39.113Z,96407.29
2023-03-26T16:47:37.906Z,96405.52
2023-03-26T16:50:29.419Z,96402.38
2023-03-26T16:53:26.060Z,96400.45
2023-03-26T16:56:02.850Z,96399.50
2023-03-26T16:58:37.256Z,96400.95
2023-03-26T17:01:28.439Z,96404.70
2023-03-26T17:04:06.063Z,96406.90
2023-03-26T17:06:45.970Z,96414.96
2023-03-26T17:09:25.048Z,96420.98
2023-03-26T17:12:30.386Z,96423.81
2023-03-26T17:14:59.282Z,96423.68
2023-03-26T17:17:40.105Z,96426.16
2023-03-26T17:20:12.122Z,96435.48
2023-03-26T17:22:47.342Z,96435.44
2023-03-26T17:25:51.868Z,96432.17
2023-03-26T17:29:03.977Z,96434.64
2023-03-26T17:31:58.925Z,96437.25
2023-03-26T17:34:40.564Z,96451.88
2023-03-26T17:37:19.179Z,96466.89
2023-03-26T17:39:47.871Z,96472.77
2023-03-26T17:42:16.376Z,96484.36
2023-03-26T17:44:47.357Z,96488.17
2023-03-26T17:47:43.685Z,96488.28
2023-03-26T17:50:24.707Z,96495.27
2023-03-26T17:53:31.682Z,96498.66
2023-03-26T17:56:16.954Z,96505.66
2023-03-26T17:58:52.942Z,96507.70
2023-03-26T18:01:35.048Z,96515.90
2023-03-26T18:04:11.840Z,96520.38
2023-03-26T18:06:55.734Z,96520.60
2023-03-26T18:09:52.382Z,96520.19
2023-03-26T18:12:44.609Z,96517.38
2023-03-26T18:15:45.758Z,96521.90
2023-03-26T18:18:37.017Z,96522.81
2023-03-26T18:21:09.738Z,96522.95
2023-03-26T18:23:44.689Z,96523.98
2023-03-26T18:26:32.505Z,96521.46
2023-03-26T18:29:24.768Z,96517.58
2023-03-26T18:32:22.503Z,96513.88
2023-03-26T18:34:59.094Z,96506.38
2023-03-26T18:37:39.074Z,96507.40
2023-03-26T18:40:14.738Z,96499.39
2023-03-26T18:42:48.293Z,96495.48
2023-03-26T18:45:27.229Z,96499.82
2023-03-26T18:48:01.524Z,96496.00
2023-03-26T18:50:37.094Z,96488.50
2023-03-26T18:53:09.367Z,96487.45
2023-03-26T18:55:39.941Z,96485.43
2023-03-26T18:58:25.372Z,96478.50
2023-03-26T19:01:08.563Z,96474.15
2023-03-26T19:03:44.836Z,96476.79
2023-03-26T19:06:15.424Z,96470.59
2023-03-26T19:08:46.941Z,96467.64
2023-03-26T19:11:17.880Z,96466.33
2023-03-26T19:13:59.891Z,96468.91
2023-03-26T19:16:34.220Z,96462.65
2023-03-26T19:19:06.818Z,96465.99
2023-03-26T19:21:36.808Z,96467.33
2023-03-26T19:24:06.077Z,96464.45
2023-03-26T19:26:36.786Z,96463.68
2023-03-26T19:29:06.619Z,96463.31
2023-03-26T19:31:42.726Z,96462.77
2023-03-26T19:34:14.241Z,96463.27
2023-03-26T19:37:01.257Z,96460.18
2023-03-26T19:39:39.156Z,96464.78
2023-03-26T19:42:14.715Z,96460.77
2023-03-26T19:44:44.131Z,96457.73
2023-03-26T19:47:39.099Z,96456.09
2023-03-26T19:50:30.507Z,96455.92
2023-03-26T19:53:24.611Z,96447.62
2023-03-26T19:55:59.150Z,96444.44
2023-03-26T19:58:28.312Z,96445.60
2023-03-26T20:00:57.479Z,96443.16
2023-03-26T20:03:29.998Z,96435.66
2023-03-26T20:05:58.807Z,96431.77
2023-03-26T20:08:27.473Z,96430.48
2023-03-26T20:10:57.623Z,96434.83
2023-03-26T20:13:26.691Z,96432.42
2023-03-26T20:16:29.427Z,96432.73
2023-03-26T20:19:02.627Z,96426.48
2023-03-26T20:21:34.905Z,96423.77
2023-03-26T20:24:11.015Z,96420.25
2023-03-26T20:26:39.683Z,96408.95
2023-03-26T20:29:08.427Z,96403.39
2023-03-26T20:31:38.534Z,96400.45
2023-03-26T20:34:18.911Z,96401.20
2023-03-26T20:36:54.369Z,96399.14
2023-03-26T20:39:24.924Z,96396.00
2023-03-26T20:41:55.191Z,96393.83
2023-03-26T20:44:27.039Z,96389.11
2023-03-26T20:46:57.558Z,96386.85
2023-03-26T20:49:29.583Z,96390.26
2023-03-26T20:51:59.917Z,96385.38
2023-03-26T20:54:30.539Z,96385.58
2023-03-26T20:56:59.253Z,96388.61
2023-03-26T20:59:29.224Z,96387.88
2023-03-26T21:01:58.145Z,96384.81
2023-03-26T21:04:27.953Z,96383.05
2023-03-26T21:07:06.957Z,96383.56
2023-03-26T21:09:41.697Z,96383.89
2023-03-26T21:12:29.853Z,96380.84
2023-03-26T21:14:59.592Z,96377.29
2023-03-26T21:17:28.861Z,96375.83
2023-03-26T21:20:02.974Z,96370.89
2023-03-26T21:23:05.856Z,96369.45
2023-03-26T21:25:47.451Z,96373.48
2023-03-26T21:28:41.839Z,96371.06
2023-03-26T21:31:20.508Z,96371.59
2023-03-26T21:33:50.599Z,96370.98
2023-03-26T21:36:20.718Z,96378.10
2023-03-26T21:38:51.231Z,96376.02
2023-03-26T21:41:37.211Z,96378.05
2023-03-26T21:44:06.554Z,96375.33
2023-03-26T21:46:36.488Z,96370.09
2023-03-26T21:49:05.500Z,96366.38
2023-03-26T21:51:35.037Z,96362.44
2023-03-26T21:54:05.251Z,96359.82
2023-03-26T21:56:36.719Z,96361.52
2023-03-26T21:59:20.027Z,96360.52
2023-03-26T22:01:58.546Z,96353.85
2023-03-26T22:04:27.445Z,96353.46
2023-03-26T22:07:20.188Z,96353.40
2023-03-26T22:09:49.479Z,96357.96
2023-03-26T22:12:19.500Z,96354.45
2023-03-26T22:14:48.827Z,96353.13
2023-03-26T22:17:17.795Z,96349.45
2023-03-26T22:19:46.985Z,96348.00
2023-03-26T22:22:15.895Z,96348.30
2023-03-26T22:24:45.389Z,96339.64
2023-03-26T22:27:16.436Z,96327.43
2023-03-26T22:29:46.808Z,96326.73
2023-03-26T22:32:15.965Z,96330.89
2023-03-26T22:34:45.956Z,96324.17
2023-03-26T22:37:14.791Z,96319.69
2023-03-26T22:39:43.952Z,96312.98
2023-03-26T22:42:12.900Z,96307.63
2023-03-26T22:44:43.025Z,96304.88
2023-03-26T22:47:14.162Z,96308.70
2023-03-26T22:49:44.387Z,96309.28
2023-03-26T22:52:13.562Z,96307.40
2023-03-26T22:54:43.355Z,96300.70
2023-03-26T22:57:12.482Z,96290.98
2023-03-26T22:59:42.873Z,96285.11
2023-03-26T23:02:13.094Z,96280.70
2023-03-26T23:04:43.317Z,96273.35
2023-03-26T23:07:12.931Z,96263.89
2023-03-26T23:09:42.110Z,96265.34
2023-03-26T23:12:12.332Z,96259.88
2023-03-26T23:14:41.942Z,96261.95
2023-03-26T23:17:14.966Z,96258.36
2023-03-26T23:19:44.948Z,96256.02
2023-03-26T23:22:14.770Z,96247.11
2023-03-26T23:24:45.146Z,96245.98
2023-03-26T23:27:15.405Z,96240.11
2023-03-26T23:29:52.336Z,96243.48
2023-03-26T23:32:25.734Z,96245.76
2023-03-26T23:34:59.105Z,96251.16
2023-03-26T23:37:30.036Z,96249.39
2023-03-26T23:40:01.384Z,96249.42
2023-03-26T23:42:30.934Z,96239.80
2023-03-26T23:45:01.588Z,96235.87
2023-03-26T23:47:35.450Z,96240.10
2023-03-26T23:50:06.302Z,96241.20
2023-03-26T23:52:38.021Z,96242.61
2023-03-26T23:55:08.756Z,96239.85
2023-03-26T23:57:39.182Z,96236.63
